createdAt,value
2022-11-29T00:00:13.711Z,96.34
2022-11-29T00:01:13.676Z,96.24
2022-11-29T00:02:13.796Z,96.24
2022-11-29T00:03:13.757Z,96.24
2022-11-29T00:04:13.678Z,96.34
2022-11-29T00:05:13.675Z,96.34
2022-11-29T00:06:13.641Z,96.45
2022-11-29T00:07:13.631Z,96.45
2022-11-29T00:08:13.614Z,96.45
2022-11-29T00:09:13.585Z,96.55
2022-11-29T00:10:13.607Z,96.70
2022-11-29T00:11:13.567Z,96.70
2022-11-29T00:12:13.585Z,96.70
2022-11-29T00:13:13.551Z,96.80
2022-11-29T00:14:13.563Z,96.80
2022-11-29T00:15:13.516Z,96.80
2022-11-29T00:16:13.579Z,96.91
2022-11-29T00:17:13.516Z,96.91
2022-11-29T00:18:13.522Z,96.91
2022-11-29T00:19:13.700Z,96.91
2022-11-29T00:20:13.510Z,96.80
2022-11-29T00:21:13.473Z,96.80
2022-11-29T00:22:13.457Z,96.80
2022-11-29T00:23:13.452Z,96.80
2022-11-29T00:24:13.460Z,96.91
2022-11-29T00:25:13.403Z,96.91
2022-11-29T00:26:13.512Z,96.91
2022-11-29T00:27:13.384Z,97.01
2022-11-29T00:28:13.411Z,97.01
2022-11-29T00:29:13.369Z,97.01
2022-11-29T00:30:13.425Z,97.01
2022-11-29T00:31:13.362Z,96.91
2022-11-29T00:32:13.351Z,96.91
2022-11-29T00:33:13.326Z,96.91
2022-11-29T00:34:13.359Z,96.91
2022-11-29T00:35:13.317Z,96.91
2022-11-29T00:36:13.309Z,96.91
2022-11-29T00:37:13.284Z,97.01
2022-11-29T00:38:13.297Z,97.01
2022-11-29T00:39:13.272Z,97.11
2022-11-29T00:40:13.276Z,97.11
2022-11-29T00:41:13.256Z,97.11
2022-11-29T00:42:13.253Z,97.11
2022-11-29T00:43:13.217Z,97.11
2022-11-29T00:44:19.654Z,97.11
2022-11-29T00:45:14.208Z,97.21
2022-11-29T00:46:13.239Z,97.21
2022-11-29T00:47:13.185Z,97.21
2022-11-29T00:48:13.178Z,97.21
2022-11-29T00:49:13.145Z,97.21
2022-11-29T00:50:13.155Z,97.21
2022-11-29T00:51:13.110Z,97.21
2022-11-29T00:52:13.133Z,97.17
2022-11-29T00:53:14.044Z,97.06
2022-11-29T00:54:13.103Z,97.06
2022-11-29T00:55:13.069Z,96.96
2022-11-29T00:56:13.092Z,96.96
2022-11-29T00:57:13.050Z,96.86
2022-11-29T00:58:13.058Z,96.86
2022-11-29T00:59:13.019Z,96.75
2022-11-29T01:00:13.036Z,96.66
2022-11-29T01:01:13.070Z,96.66
2022-11-29T01:02:13.046Z,96.66
2022-11-29T01:03:12.966Z,96.55
2022-11-29T01:04:12.986Z,96.55
2022-11-29T01:05:12.951Z,96.66
2022-11-29T01:06:12.979Z,96.55
2022-11-29T01:07:12.999Z,96.55
2022-11-29T01:08:12.951Z,96.66
2022-11-29T01:09:12.909Z,96.66
2022-11-29T01:10:12.922Z,96.66
2022-11-29T01:11:12.901Z,96.75
2022-11-29T01:12:12.913Z,96.75
2022-11-29T01:13:12.861Z,96.86
2022-11-29T01:14:12.900Z,96.86
2022-11-29T01:15:12.875Z,96.96
2022-11-29T01:16:13.986Z,96.96
2022-11-29T01:17:12.823Z,96.96
2022-11-29T01:18:12.827Z,97.06
2022-11-29T01:19:12.813Z,97.06
2022-11-29T01:20:12.829Z,97.11
2022-11-29T01:21:12.769Z,97.11
2022-11-29T01:22:12.785Z,97.11
2022-11-29T01:23:12.754Z,97.06
2022-11-29T01:24:12.776Z,97.06
2022-11-29T01:25:12.745Z,97.06
2022-11-29T01:26:12.746Z,97.06
2022-11-29T01:27:12.730Z,97.06
2022-11-29T01:28:12.714Z,97.17
2022-11-29T01:29:12.693Z,97.17
2022-11-29T01:30:12.704Z,97.17
2022-11-29T01:31:12.718Z,97.17
2022-11-29T01:32:12.732Z,97.06
2022-11-29T01:33:12.639Z,97.11
2022-11-29T01:34:13.642Z,97.11
2022-11-29T01:35:12.609Z,97.11
2022-11-29T01:36:12.629Z,97.21
2022-11-29T01:37:12.589Z,97.21
2022-11-29T01:38:12.649Z,97.21
2022-11-29T01:39:12.568Z,97.31
2022-11-29T01:40:12.584Z,97.31
2022-11-29T01:41:12.544Z,97.31
2022-11-29T01:42:12.535Z,97.31
2022-11-29T01:43:12.554Z,97.31
2022-11-29T01:44:12.521Z,97.31
2022-11-29T01:45:12.531Z,97.31
2022-11-29T01:46:12.542Z,97.42
2022-11-29T01:47:12.512Z,97.42
2022-11-29T01:48:13.411Z,97.52
2022-11-29T01:49:12.502Z,97.52
2022-11-29T01:50:12.442Z,97.52
2022-11-29T01:51:12.468Z,97.52
2022-11-29T01:52:12.436Z,97.63
2022-11-29T01:53:12.432Z,97.63
2022-11-29T01:54:12.549Z,97.63
2022-11-29T01:55:13.370Z,97.63
2022-11-29T01:56:13.353Z,97.63
2022-11-29T01:57:12.392Z,97.63
2022-11-29T01:58:12.354Z,97.63
2022-11-29T01:59:12.359Z,97.63
2022-11-29T02:00:12.354Z,97.63
2022-11-29T02:01:12.374Z,97.63
2022-11-29T02:02:12.375Z,97.63
2022-11-29T02:03:12.335Z,97.63
2022-11-29T02:04:12.287Z,97.58
2022-11-29T02:05:12.311Z,97.58
2022-11-29T02:06:12.276Z,97.63
2022-11-29T02:07:12.273Z,97.58
2022-11-29T02:08:12.246Z,97.58
2022-11-29T02:09:12.264Z,97.58
2022-11-29T02:10:12.236Z,97.68
2022-11-29T02:11:12.286Z,97.68
2022-11-29T02:12:13.144Z,97.58
2022-11-29T02:13:12.214Z,97.58
2022-11-29T02:14:12.189Z,97.48
2022-11-29T02:15:12.184Z,97.48
2022-11-29T02:16:12.191Z,97.48
2022-11-29T02:17:12.164Z,97.48
2022-11-29T02:18:13.090Z,97.48
2022-11-29T02:19:12.135Z,97.48
2022-11-29T02:20:12.105Z,97.48
2022-11-29T02:21:12.131Z,97.48
2022-11-29T02:22:12.091Z,97.58
2022-11-29T02:23:12.116Z,97.58
2022-11-29T02:24:12.062Z,97.58
2022-11-29T02:25:12.075Z,97.68
2022-11-29T02:26:12.055Z,97.68
2022-11-29T02:27:12.054Z,97.58
2022-11-29T02:28:12.016Z,97.48
2022-11-29T02:29:12.038Z,97.52
2022-11-29T02:30:12.022Z,97.63
2022-11-29T02:31:12.045Z,97.68
2022-11-29T02:32:11.991Z,97.73
2022-11-29T02:33:11.982Z,97.83
2022-11-29T02:34:11.954Z,97.83
2022-11-29T02:35:11.969Z,97.83
2022-11-29T02:36:11.933Z,97.83
2022-11-29T02:37:11.968Z,97.89
2022-11-29T02:38:11.913Z,97.94
2022-11-29T02:39:11.935Z,97.89
2022-11-29T02:40:11.968Z,97.94
2022-11-29T02:41:11.925Z,97.94
2022-11-29T02:42:11.877Z,97.78
2022-11-29T02:43:11.881Z,97.78
2022-11-29T02:44:11.841Z,97.78
2022-11-29T02:45:11.871Z,97.78
2022-11-29T02:46:11.969Z,97.78
2022-11-29T02:47:11.834Z,97.89
2022-11-29T02:48:11.808Z,97.89
2022-11-29T02:49:11.809Z,97.89
2022-11-29T02:50:11.790Z,97.89
2022-11-29T02:51:11.786Z,97.89
2022-11-29T02:52:12.717Z,97.89
2022-11-29T02:53:11.768Z,97.89
2022-11-29T02:54:11.814Z,97.89
2022-11-29T02:55:11.790Z,97.78
2022-11-29T02:56:11.719Z,97.68
2022-11-29T02:57:11.725Z,97.68
2022-11-29T02:58:11.697Z,97.78
2022-11-29T02:59:11.762Z,97.78
2022-11-29T03:00:11.695Z,97.89
2022-11-29T03:01:11.727Z,97.89
2022-11-29T03:02:11.799Z,97.89
2022-11-29T03:03:11.644Z,97.89
2022-11-29T03:04:11.612Z,97.99
2022-11-29T03:05:11.643Z,97.99
2022-11-29T03:06:11.612Z,97.99
2022-11-29T03:07:11.626Z,97.99
2022-11-29T03:08:11.594Z,97.99
2022-11-29T03:09:11.583Z,97.99
2022-11-29T03:10:11.554Z,97.99
2022-11-29T03:11:11.561Z,98.10
2022-11-29T03:12:11.534Z,98.10
2022-11-29T03:13:11.547Z,98.10
2022-11-29T03:14:11.516Z,98.10
2022-11-29T03:15:11.528Z,98.10
2022-11-29T03:16:11.554Z,98.20
2022-11-29T03:17:11.485Z,98.20
2022-11-29T03:18:11.460Z,98.20
2022-11-29T03:19:11.488Z,98.30
2022-11-29T03:20:11.438Z,98.30
2022-11-29T03:21:11.448Z,98.30
2022-11-29T03:22:11.408Z,98.30
2022-11-29T03:23:11.433Z,98.30
2022-11-29T03:24:11.390Z,98.30
2022-11-29T03:25:12.350Z,98.30
2022-11-29T03:26:11.373Z,98.20
2022-11-29T03:27:11.380Z,98.20
2022-11-29T03:28:11.338Z,98.20
2022-11-29T03:29:11.354Z,98.20
2022-11-29T03:30:11.326Z,98.20
2022-11-29T03:31:12.344Z,98.20
2022-11-29T03:32:11.291Z,98.10
2022-11-29T03:33:11.319Z,98.10
2022-11-29T03:34:11.272Z,98.20
2022-11-29T03:35:11.299Z,98.20
2022-11-29T03:36:11.256Z,98.20
2022-11-29T03:37:11.260Z,98.20
2022-11-29T03:38:11.232Z,98.20
2022-11-29T03:39:11.240Z,98.30
2022-11-29T03:40:11.222Z,98.30
2022-11-29T03:41:11.233Z,98.30
2022-11-29T03:42:11.192Z,98.30
2022-11-29T03:43:11.212Z,98.41
2022-11-29T03:44:11.183Z,98.50
2022-11-29T03:45:12.135Z,98.50
2022-11-29T03:46:11.228Z,98.61
2022-11-29T03:47:11.164Z,98.61
2022-11-29T03:48:11.136Z,98.61
2022-11-29T03:49:11.133Z,98.61
2022-11-29T03:50:11.103Z,98.61
2022-11-29T03:51:11.123Z,98.61
2022-11-29T03:52:11.088Z,98.50
2022-11-29T03:53:11.099Z,98.50
2022-11-29T03:54:11.060Z,98.50
2022-11-29T03:55:11.088Z,98.61
2022-11-29T03:56:11.036Z,98.61
2022-11-29T03:57:11.049Z,98.61
2022-11-29T03:58:11.956Z,98.61
2022-11-29T03:59:11.068Z,98.50
2022-11-29T04:00:11.945Z,98.50
2022-11-29T04:01:11.156Z,98.50
2022-11-29T04:02:10.966Z,98.41
2022-11-29T04:03:10.979Z,98.30
2022-11-29T04:04:10.940Z,98.30
2022-11-29T04:05:10.960Z,98.30
2022-11-29T04:06:10.927Z,98.30
2022-11-29T04:07:10.952Z,98.41
2022-11-29T04:08:10.890Z,98.50
2022-11-29T04:09:10.918Z,98.61
2022-11-29T04:10:10.869Z,98.61
2022-11-29T04:11:10.908Z,98.71
2022-11-29T04:12:10.863Z,98.76
2022-11-29T04:13:10.859Z,98.71
2022-11-29T04:14:10.841Z,98.76
2022-11-29T04:15:15.318Z,98.71
2022-11-29T04:16:10.849Z,98.71
2022-11-29T04:17:10.826Z,98.61
2022-11-29T04:18:10.781Z,98.61
2022-11-29T04:19:10.810Z,98.50
2022-11-29T04:20:10.763Z,98.41
2022-11-29T04:21:10.774Z,98.41
2022-11-29T04:22:10.764Z,98.41
2022-11-29T04:23:10.761Z,98.30
2022-11-29T04:24:10.706Z,98.30
2022-11-29T04:25:10.729Z,98.20
2022-11-29T04:26:10.692Z,98.35
2022-11-29T04:27:10.720Z,98.30
2022-11-29T04:28:10.691Z,98.45
2022-11-29T04:29:10.695Z,98.41
2022-11-29T04:30:10.644Z,98.41
2022-11-29T04:31:10.716Z,98.50
2022-11-29T04:32:10.619Z,98.50
2022-11-29T04:33:10.665Z,98.41
2022-11-29T04:34:10.608Z,98.41
2022-11-29T04:35:10.612Z,98.41
2022-11-29T04:36:10.578Z,98.41
2022-11-29T04:37:10.606Z,98.41
2022-11-29T04:38:10.557Z,98.30
2022-11-29T04:39:10.569Z,98.30
2022-11-29T04:40:10.527Z,98.30
2022-11-29T04:41:10.547Z,98.20
2022-11-29T04:42:10.536Z,98.20
2022-11-29T04:43:10.528Z,98.20
2022-11-29T04:44:10.505Z,98.30
2022-11-29T04:45:10.500Z,98.30
2022-11-29T04:46:10.500Z,98.41
2022-11-29T04:47:10.494Z,98.50
2022-11-29T04:48:10.452Z,98.50
2022-11-29T04:49:10.469Z,98.61
2022-11-29T04:50:10.419Z,98.66
2022-11-29T04:51:10.452Z,98.66
2022-11-29T04:52:10.404Z,98.76
2022-11-29T04:53:10.423Z,98.86
2022-11-29T04:54:10.391Z,98.97
2022-11-29T04:55:10.395Z,99.17
2022-11-29T04:56:10.344Z,99.17
2022-11-29T04:57:10.367Z,99.17
2022-11-29T04:58:10.335Z,99.17
2022-11-29T04:59:10.367Z,99.13
2022-11-29T05:00:10.325Z,99.02
2022-11-29T05:01:10.400Z,99.02
2022-11-29T05:02:10.319Z,98.92
2022-11-29T05:03:10.316Z,98.92
2022-11-29T05:04:10.265Z,98.71
2022-11-29T05:05:10.278Z,98.61
2022-11-29T05:06:10.236Z,98.55
2022-11-29T05:07:10.277Z,98.66
2022-11-29T05:08:10.219Z,98.86
2022-11-29T05:09:10.259Z,98.97
2022-11-29T05:10:10.212Z,99.07
2022-11-29T05:11:10.212Z,99.17
2022-11-29T05:12:10.195Z,99.17
2022-11-29T05:13:10.187Z,99.17
2022-11-29T05:14:11.116Z,99.17
2022-11-29T05:15:10.157Z,99.27
2022-11-29T05:16:10.152Z,99.38
2022-11-29T05:17:10.183Z,99.48
2022-11-29T05:18:10.122Z,99.38
2022-11-29T05:19:10.129Z,99.38
2022-11-29T05:20:10.085Z,99.38
2022-11-29T05:21:10.100Z,99.48
2022-11-29T05:22:10.061Z,99.63
2022-11-29T05:23:10.081Z,99.84
2022-11-29T05:24:10.044Z,99.99
2022-11-29T05:25:10.068Z,99.99
2022-11-29T05:26:10.022Z,99.99
2022-11-29T05:27:10.037Z,99.99
2022-11-29T05:28:10.553Z,99.99
2022-11-29T05:29:10.015Z,99.99
2022-11-29T05:30:09.983Z,99.99
2022-11-29T05:31:10.020Z,99.90
2022-11-29T05:32:09.956Z,99.79
2022-11-29T05:33:09.983Z,99.79
2022-11-29T05:34:09.933Z,99.69
2022-11-29T05:35:09.941Z,99.58
2022-11-29T05:36:09.904Z,99.48
2022-11-29T05:37:09.915Z,99.38
2022-11-29T05:38:09.894Z,99.38
2022-11-29T05:39:09.901Z,99.38
2022-11-29T05:40:09.854Z,99.48
2022-11-29T05:41:09.874Z,99.48
2022-11-29T05:42:09.845Z,99.48
2022-11-29T05:43:09.860Z,99.48
2022-11-29T05:44:09.816Z,99.33
2022-11-29T05:45:09.855Z,99.23
2022-11-29T05:46:09.838Z,99.07
2022-11-29T05:47:09.804Z,98.97
2022-11-29T05:48:09.778Z,99.07
2022-11-29T05:49:09.782Z,99.07
2022-11-29T05:50:09.740Z,99.17
2022-11-29T05:51:09.777Z,99.17
2022-11-29T05:52:09.750Z,99.17
2022-11-29T05:53:09.768Z,99.17
2022-11-29T05:54:09.699Z,99.27
2022-11-29T05:55:09.747Z,99.27
2022-11-29T05:56:09.677Z,99.17
2022-11-29T05:57:09.690Z,99.17
2022-11-29T05:58:09.737Z,99.17
2022-11-29T05:59:09.667Z,99.13
2022-11-29T06:00:09.682Z,99.17
2022-11-29T06:01:09.633Z,99.13
2022-11-29T06:02:09.689Z,99.13
2022-11-29T06:03:09.658Z,99.13
2022-11-29T06:04:14.597Z,99.13
2022-11-29T06:05:10.603Z,99.23
2022-11-29T06:06:09.598Z,99.23
2022-11-29T06:07:09.558Z,99.23
2022-11-29T06:08:09.576Z,99.23
2022-11-29T06:09:09.544Z,99.23
2022-11-29T06:10:09.564Z,99.23
2022-11-29T06:11:09.505Z,99.23
2022-11-29T06:12:09.536Z,99.23
2022-11-29T06:13:09.493Z,99.23
2022-11-29T06:14:09.506Z,99.23
2022-11-29T06:15:09.487Z,99.23
2022-11-29T06:16:09.515Z,99.23
2022-11-29T06:17:09.442Z,99.13
2022-11-29T06:18:09.467Z,99.13
2022-11-29T06:19:09.426Z,99.13
2022-11-29T06:20:09.452Z,99.02
2022-11-29T06:21:09.408Z,99.02
2022-11-29T06:22:09.586Z,98.92
2022-11-29T06:23:09.387Z,98.92
2022-11-29T06:24:09.413Z,98.82
2022-11-29T06:25:09.583Z,98.82
2022-11-29T06:26:09.373Z,98.82
2022-11-29T06:27:09.332Z,98.92
2022-11-29T06:28:09.344Z,98.92
2022-11-29T06:29:09.335Z,98.92
2022-11-29T06:30:09.323Z,98.92
2022-11-29T06:31:09.332Z,98.92
2022-11-29T06:32:09.300Z,98.92
2022-11-29T06:33:09.298Z,98.92
2022-11-29T06:34:09.279Z,98.92
2022-11-29T06:35:09.249Z,98.92
2022-11-29T06:36:09.291Z,98.92
2022-11-29T06:37:09.222Z,98.92
2022-11-29T06:38:09.246Z,99.02
2022-11-29T06:39:09.206Z,99.02
2022-11-29T06:40:09.206Z,99.02
2022-11-29T06:41:09.189Z,99.02
2022-11-29T06:42:09.211Z,99.02
2022-11-29T06:43:09.188Z,99.02
2022-11-29T06:44:09.177Z,99.02
2022-11-29T06:45:09.148Z,99.02
2022-11-29T06:46:09.224Z,99.13
2022-11-29T06:47:09.109Z,99.02
2022-11-29T06:48:09.137Z,99.02
2022-11-29T06:49:09.093Z,99.02
2022-11-29T06:50:09.096Z,99.02
2022-11-29T06:51:09.064Z,98.92
2022-11-29T06:52:09.090Z,98.82
2022-11-29T06:53:09.034Z,98.71
2022-11-29T06:54:09.055Z,98.71
2022-11-29T06:55:09.032Z,98.61
2022-11-29T06:56:09.040Z,98.61
2022-11-29T06:57:08.995Z,98.61
2022-11-29T06:58:09.007Z,98.50
2022-11-29T06:59:08.976Z,98.41
2022-11-29T07:00:09.016Z,98.20
2022-11-29T07:01:08.966Z,98.10
2022-11-29T07:02:09.000Z,98.10
2022-11-29T07:03:08.939Z,98.10
2022-11-29T07:04:08.979Z,97.89
2022-11-29T07:05:08.912Z,97.89
2022-11-29T07:06:08.943Z,97.99
2022-11-29T07:07:08.903Z,98.10
2022-11-29T07:08:08.910Z,98.10
2022-11-29T07:09:08.866Z,98.10
2022-11-29T07:10:14.661Z,98.10
2022-11-29T07:11:09.835Z,98.20
2022-11-29T07:12:08.868Z,98.20
2022-11-29T07:13:09.783Z,98.20
2022-11-29T07:14:08.826Z,98.20
2022-11-29T07:15:08.812Z,98.20
2022-11-29T07:16:08.861Z,98.20
2022-11-29T07:17:08.773Z,98.20
2022-11-29T07:18:08.782Z,98.10
2022-11-29T07:19:08.749Z,98.20
2022-11-29T07:20:08.788Z,98.20
2022-11-29T07:21:08.734Z,98.20
2022-11-29T07:22:08.746Z,98.20
2022-11-29T07:23:08.708Z,98.30
2022-11-29T07:24:08.733Z,98.30
2022-11-29T07:25:08.705Z,98.41
2022-11-29T07:26:08.703Z,98.41
2022-11-29T07:27:08.672Z,98.50
2022-11-29T07:28:08.682Z,98.41
2022-11-29T07:29:08.644Z,98.41
2022-11-29T07:30:08.674Z,98.30
2022-11-29T07:31:08.679Z,98.30
2022-11-29T07:32:08.629Z,98.30
2022-11-29T07:33:08.598Z,98.20
2022-11-29T07:34:08.602Z,98.20
2022-11-29T07:35:08.616Z,98.20
2022-11-29T07:36:08.577Z,98.20
2022-11-29T07:37:08.546Z,98.20
2022-11-29T07:38:08.559Z,98.20
2022-11-29T07:39:08.549Z,98.20
2022-11-29T07:40:08.560Z,98.20
2022-11-29T07:41:08.518Z,98.30
2022-11-29T07:42:08.515Z,98.30
2022-11-29T07:43:08.507Z,98.41
2022-11-29T07:44:08.489Z,98.41
2022-11-29T07:45:08.470Z,98.41
2022-11-29T07:46:08.490Z,98.41
2022-11-29T07:47:08.462Z,98.30
2022-11-29T07:48:08.479Z,98.41
2022-11-29T07:49:08.445Z,98.41
2022-11-29T07:50:08.444Z,98.41
2022-11-29T07:51:08.392Z,98.50
2022-11-29T07:52:08.425Z,98.61
2022-11-29T07:53:08.370Z,98.61
2022-11-29T07:54:08.384Z,98.50
2022-11-29T07:55:08.374Z,98.50
2022-11-29T07:56:08.366Z,98.50
2022-11-29T07:57:08.325Z,98.41
2022-11-29T07:58:08.354Z,98.30
2022-11-29T07:59:08.348Z,98.30
2022-11-29T08:00:08.324Z,98.20
2022-11-29T08:01:08.433Z,98.10
2022-11-29T08:02:11.660Z,98.10
2022-11-29T08:03:08.254Z,97.89
2022-11-29T08:04:08.276Z,97.78
2022-11-29T08:05:08.226Z,97.68
2022-11-29T08:06:08.263Z,97.78
2022-11-29T08:07:08.217Z,97.78
2022-11-29T08:08:08.225Z,97.78
2022-11-29T08:09:08.192Z,97.89
2022-11-29T08:10:08.208Z,97.89
2022-11-29T08:11:08.176Z,97.89
2022-11-29T08:12:08.211Z,98.10
2022-11-29T08:13:08.283Z,98.30
2022-11-29T08:14:08.357Z,98.50
2022-11-29T08:15:09.096Z,98.61
2022-11-29T08:16:08.186Z,98.82
2022-11-29T08:17:08.114Z,99.02
2022-11-29T08:18:08.126Z,99.17
2022-11-29T08:19:08.084Z,99.38
2022-11-29T08:20:08.133Z,99.48
2022-11-29T08:21:08.062Z,99.69
2022-11-29T08:22:08.075Z,99.69
2022-11-29T08:23:08.031Z,99.69
2022-11-29T08:24:08.071Z,99.69
2022-11-29T08:25:08.053Z,99.69
2022-11-29T08:26:08.043Z,99.58
2022-11-29T08:27:08.010Z,99.58
2022-11-29T08:28:08.001Z,99.58
2022-11-29T08:29:07.991Z,99.58
2022-11-29T08:30:08.001Z,99.58
2022-11-29T08:31:07.981Z,99.48
2022-11-29T08:32:07.954Z,99.48
2022-11-29T08:33:07.924Z,99.58
2022-11-29T08:34:07.935Z,99.69
2022-11-29T08:35:07.917Z,99.79
2022-11-29T08:36:07.916Z,99.74
2022-11-29T08:37:07.893Z,99.74
2022-11-29T08:38:07.914Z,99.64
2022-11-29T08:39:09.677Z,99.33
2022-11-29T08:40:07.894Z,99.23
2022-11-29T08:41:07.827Z,99.13
2022-11-29T08:42:07.849Z,99.02
2022-11-29T08:43:07.808Z,99.02
2022-11-29T08:44:07.827Z,98.92
2022-11-29T08:45:07.801Z,98.67
2022-11-29T08:46:07.847Z,98.36
2022-11-29T08:47:07.774Z,98.10
2022-11-29T08:48:07.784Z,98.10
2022-11-29T08:49:07.748Z,98.20
2022-11-29T08:50:07.758Z,98.30
2022-11-29T08:51:07.728Z,98.30
2022-11-29T08:52:07.757Z,98.15
2022-11-29T08:53:07.701Z,98.05
2022-11-29T08:54:07.714Z,97.95
2022-11-29T08:55:07.683Z,97.95
2022-11-29T08:56:31.757Z,97.85
2022-11-29T08:58:08.850Z,97.74
2022-11-29T08:59:07.640Z,97.85
2022-11-29T09:00:07.732Z,97.95
2022-11-29T09:01:07.632Z,97.95
2022-11-29T09:02:07.679Z,97.95
2022-11-29T09:03:07.601Z,97.95
2022-11-29T09:04:07.584Z,97.74
2022-11-29T09:05:07.582Z,97.43
2022-11-29T09:06:11.951Z,97.43
2022-11-29T09:07:08.553Z,97.53
2022-11-29T09:08:07.559Z,97.53
2022-11-29T09:09:07.544Z,97.43
2022-11-29T09:10:07.542Z,97.53
2022-11-29T09:11:07.500Z,97.74
2022-11-29T09:12:07.523Z,97.64
2022-11-29T09:13:08.432Z,97.53
2022-11-29T09:14:07.514Z,97.53
2022-11-29T09:15:07.466Z,97.64
2022-11-29T09:16:07.531Z,97.64
2022-11-29T09:17:07.462Z,97.74
2022-11-29T09:18:07.689Z,97.85
2022-11-29T09:19:08.851Z,97.80
2022-11-29T09:20:08.880Z,97.80
2022-11-29T09:21:07.371Z,97.80
2022-11-29T09:22:07.417Z,97.69
2022-11-29T09:23:07.369Z,97.60
2022-11-29T09:24:07.695Z,97.49
2022-11-29T09:25:07.336Z,97.60
2022-11-29T09:26:07.350Z,97.60
2022-11-29T09:27:07.591Z,97.49
2022-11-29T09:28:07.318Z,97.49
2022-11-29T09:29:07.627Z,97.08
2022-11-29T09:30:07.323Z,97.18
2022-11-29T09:31:07.282Z,97.49
2022-11-29T09:32:07.353Z,97.60
2022-11-29T09:33:07.256Z,97.69
2022-11-29T09:34:07.264Z,97.80
2022-11-29T09:35:07.231Z,97.90
2022-11-29T09:36:07.255Z,97.69
2022-11-29T09:37:07.254Z,97.53
2022-11-29T09:38:07.223Z,97.95
2022-11-29T09:39:07.295Z,98.36
2022-11-29T09:40:07.197Z,98.57
2022-11-29T09:41:07.157Z,98.77
2022-11-29T09:42:07.199Z,98.77
2022-11-29T09:43:07.136Z,98.77
2022-11-29T09:44:07.169Z,98.46
2022-11-29T09:45:07.111Z,98.25
2022-11-29T09:46:07.209Z,98.25
2022-11-29T09:47:07.344Z,97.95
2022-11-29T09:48:07.311Z,98.05
2022-11-29T09:49:07.079Z,98.41
2022-11-29T09:50:07.073Z,98.57
2022-11-29T09:51:07.046Z,98.77
2022-11-29T09:52:07.290Z,98.88
2022-11-29T09:53:07.039Z,98.67
2022-11-29T09:54:07.027Z,98.57
2022-11-29T09:55:07.014Z,98.77
2022-11-29T09:56:07.146Z,98.77
2022-11-29T09:57:10.617Z,98.77
2022-11-29T09:58:07.001Z,98.57
2022-11-29T09:59:06.949Z,98.36
2022-11-29T10:00:07.022Z,98.25
2022-11-29T10:01:07.023Z,98.05
2022-11-29T10:02:06.996Z,97.95
2022-11-29T10:03:06.936Z,97.74
2022-11-29T10:04:06.925Z,97.95
2022-11-29T10:05:06.902Z,98.25
2022-11-29T10:06:06.902Z,98.46
2022-11-29T10:07:06.875Z,98.82
2022-11-29T10:08:06.893Z,98.82
2022-11-29T10:09:06.844Z,99.02
2022-11-29T10:10:06.963Z,98.97
2022-11-29T10:11:07.810Z,99.02
2022-11-29T10:12:06.804Z,98.97
2022-11-29T10:13:07.336Z,98.97
2022-11-29T10:14:06.803Z,98.88
2022-11-29T10:15:06.800Z,98.77
2022-11-29T10:16:06.923Z,98.57
2022-11-29T10:17:07.744Z,98.46
2022-11-29T10:18:07.534Z,98.42
2022-11-29T10:19:07.010Z,98.21
2022-11-29T10:20:07.665Z,98.11
2022-11-29T10:21:08.188Z,97.90
2022-11-29T10:22:07.312Z,97.69
2022-11-29T10:23:08.181Z,97.60
2022-11-29T10:24:08.124Z,97.49
2022-11-29T10:25:07.323Z,97.28
2022-11-29T10:26:07.285Z,97.39
2022-11-29T10:27:06.672Z,97.49
2022-11-29T10:28:06.646Z,97.49
2022-11-29T10:29:06.651Z,97.49
2022-11-29T10:30:06.599Z,97.28
2022-11-29T10:31:06.662Z,97.28
2022-11-29T10:32:10.253Z,97.18
2022-11-29T10:33:07.559Z,97.18
2022-11-29T10:34:06.616Z,97.08
2022-11-29T10:35:06.575Z,97.18
2022-11-29T10:36:06.750Z,97.08
2022-11-29T10:37:07.031Z,96.88
2022-11-29T10:38:29.605Z,96.88
2022-11-29T10:39:13.005Z,96.77
2022-11-29T10:40:07.846Z,96.88
2022-11-29T10:41:06.506Z,97.18
2022-11-29T10:42:07.266Z,97.33
2022-11-29T10:43:06.734Z,97.49
2022-11-29T10:44:06.449Z,97.60
2022-11-29T10:45:06.488Z,97.39
2022-11-29T10:46:06.503Z,97.18
2022-11-29T10:47:10.661Z,97.18
2022-11-29T10:48:06.418Z,97.02
2022-11-29T10:49:06.433Z,97.13
2022-11-29T10:50:06.405Z,97.53
2022-11-29T10:51:06.404Z,97.53
2022-11-29T10:52:07.817Z,97.64
2022-11-29T10:53:06.415Z,97.33
2022-11-29T10:54:06.344Z,97.33
2022-11-29T10:55:06.440Z,97.43
2022-11-29T10:56:06.319Z,97.64
2022-11-29T10:57:06.329Z,97.74
2022-11-29T10:58:06.288Z,97.74
2022-11-29T10:59:06.409Z,97.64
2022-11-29T11:00:06.313Z,97.64
2022-11-29T11:01:07.330Z,97.85
2022-11-29T11:02:06.272Z,97.85
2022-11-29T11:03:06.258Z,97.85
2022-11-29T11:04:06.234Z,97.80
2022-11-29T11:05:07.196Z,97.69
2022-11-29T11:06:06.208Z,97.69
2022-11-29T11:07:06.209Z,97.60
2022-11-29T11:08:06.184Z,97.60
2022-11-29T11:09:07.139Z,97.39
2022-11-29T11:10:06.183Z,97.08
2022-11-29T11:11:06.163Z,96.88
2022-11-29T11:12:06.142Z,96.77
2022-11-29T11:13:06.167Z,96.77
2022-11-29T11:14:08.070Z,96.67
2022-11-29T11:15:06.139Z,96.67
2022-11-29T11:16:06.097Z,96.67
2022-11-29T11:17:06.157Z,96.67
2022-11-29T11:18:06.069Z,96.67
2022-11-29T11:19:06.089Z,96.56
2022-11-29T11:20:06.067Z,96.46
2022-11-29T11:21:06.062Z,97.18
2022-11-29T11:22:06.040Z,97.80
2022-11-29T11:23:07.523Z,97.69
2022-11-29T11:24:06.966Z,97.49
2022-11-29T11:25:06.378Z,97.18
2022-11-29T11:26:06.430Z,96.88
2022-11-29T11:27:06.513Z,96.77
2022-11-29T11:28:05.958Z,96.67
2022-11-29T11:29:05.983Z,96.77
2022-11-29T11:30:06.558Z,96.72
2022-11-29T11:31:06.240Z,96.72
2022-11-29T11:32:06.446Z,96.72
2022-11-29T11:33:05.948Z,96.52
2022-11-29T11:34:05.900Z,96.21
2022-11-29T11:35:05.910Z,96.21
2022-11-29T11:36:05.853Z,96.21
2022-11-29T11:37:05.880Z,96.31
2022-11-29T11:38:05.854Z,96.31
2022-11-29T11:39:05.897Z,96.21
2022-11-29T11:40:05.831Z,96.21
2022-11-29T11:41:05.939Z,96.31
2022-11-29T11:42:05.806Z,96.42
2022-11-29T11:43:07.266Z,96.42
2022-11-29T11:44:14.989Z,96.42
2022-11-29T11:45:06.788Z,96.52
2022-11-29T11:46:08.106Z,96.52
2022-11-29T11:47:05.955Z,96.52
2022-11-29T11:48:06.708Z,96.52
2022-11-29T11:49:06.699Z,96.52
2022-11-29T11:50:05.698Z,96.52
2022-11-29T11:51:05.719Z,96.31
2022-11-29T11:52:05.683Z,96.21
2022-11-29T11:53:05.961Z,96.11
2022-11-29T11:54:05.691Z,96.21
2022-11-29T11:55:05.687Z,96.31
2022-11-29T11:56:05.959Z,96.42
2022-11-29T11:57:05.929Z,96.52
2022-11-29T11:58:10.237Z,96.52
2022-11-29T11:59:05.975Z,96.52
2022-11-29T12:00:07.311Z,96.62
2022-11-29T12:01:06.486Z,96.72
2022-11-29T12:02:05.996Z,96.83
2022-11-29T12:03:05.660Z,96.83
2022-11-29T12:04:06.006Z,96.62
2022-11-29T12:05:05.590Z,96.62
2022-11-29T12:06:06.046Z,96.52
2022-11-29T12:07:06.015Z,96.52
2022-11-29T12:08:08.096Z,96.52
2022-11-29T12:09:05.535Z,96.42
2022-11-29T12:10:05.475Z,96.42
2022-11-29T12:11:07.428Z,96.31
2022-11-29T12:12:05.464Z,96.31
2022-11-29T12:13:05.476Z,96.31
2022-11-29T12:14:05.429Z,96.42
2022-11-29T12:15:05.475Z,96.42
2022-11-29T12:16:05.442Z,96.52
2022-11-29T12:17:05.535Z,96.31
2022-11-29T12:18:05.394Z,96.42
2022-11-29T12:19:05.412Z,96.77
2022-11-29T12:20:05.383Z,97.08
2022-11-29T12:21:05.454Z,97.39
2022-11-29T12:22:05.353Z,97.60
2022-11-29T12:23:05.352Z,97.69
2022-11-29T12:24:06.282Z,97.69
2022-11-29T12:25:05.343Z,97.69
2022-11-29T12:26:05.357Z,97.69
2022-11-29T12:27:05.363Z,97.69
2022-11-29T12:28:05.275Z,97.80
2022-11-29T12:29:05.286Z,97.80
2022-11-29T12:30:05.268Z,97.90
2022-11-29T12:31:05.325Z,98.11
2022-11-29T12:32:05.242Z,98.21
2022-11-29T12:33:05.247Z,98.32
2022-11-29T12:34:05.221Z,98.32
2022-11-29T12:35:05.219Z,98.21
2022-11-29T12:36:05.196Z,98.21
2022-11-29T12:37:05.208Z,98.06
2022-11-29T12:38:05.163Z,97.96
2022-11-29T12:39:05.174Z,97.75
2022-11-29T12:40:05.153Z,97.75
2022-11-29T12:41:05.154Z,97.75
2022-11-29T12:42:05.133Z,97.86
2022-11-29T12:43:05.130Z,97.86
2022-11-29T12:44:05.093Z,97.86
2022-11-29T12:45:05.126Z,97.75
2022-11-29T12:46:05.135Z,97.75
2022-11-29T12:47:34.764Z,97.75
2022-11-29T12:48:06.045Z,97.75
2022-11-29T12:49:05.054Z,97.75
2022-11-29T12:50:05.124Z,97.61
2022-11-29T12:51:05.038Z,97.50
2022-11-29T12:52:05.008Z,97.40
2022-11-29T12:53:05.046Z,97.30